sensor_id;sensor_type;location;lat;lon;timestamp;temperature;humidity
66670;DHT22;53568;52.164;4.472;2023-04-21T00:00:14;10.65;74.00
66670;DHT22;53568;52.164;4.472;2023-04-21T00:02:40;10.48;75.02
66670;DHT22;53568;52.164;4.472;2023-04-21T00:05:07;10.28;76.00
66670;DHT22;53568;52.164;4.472;2023-04-21T00:07:38;10.14;76.42
66670;DHT22;53568;52.164;4.472;2023-04-21T00:10:08;10.19;76.82
66670;DHT22;53568;52.164;4.472;2023-04-21T00:12:34;10.25;76.74
66670;DHT22;53568;52.164;4.472;2023-04-21T00:15:00;10.21;76.99
66670;DHT22;53568;52.164;4.472;2023-04-21T00:17:26;10.18;77.43
66670;DHT22;53568;52.164;4.472;2023-04-21T00:19:52;10.32;76.87
66670;DHT22;53568;52.164;4.472;2023-04-21T00:22:17;10.14;77.53
66670;DHT22;53568;52.164;4.472;2023-04-21T00:24:43;10.22;77.65
66670;DHT22;53568;52.164;4.472;2023-04-21T00:27:09;10.21;77.94
66670;DHT22;53568;52.164;4.472;2023-04-21T00:29:35;10.31;77.71
66670;DHT22;53568;52.164;4.472;2023-04-21T00:32:01;10.38;77.68
66670;DHT22;53568;52.164;4.472;2023-04-21T00:34:28;10.41;77.62
66670;DHT22;53568;52.164;4.472;2023-04-21T00:36:53;10.45;77.25
66670;DHT22;53568;52.164;4.472;2023-04-21T00:39:19;10.48;77.00
66670;DHT22;53568;52.164;4.472;2023-04-21T00:41:45;10.50;77.11
66670;DHT22;53568;52.164;4.472;2023-04-21T00:44:10;10.50;76.91
66670;DHT22;53568;52.164;4.472;2023-04-21T00:46:36;10.55;77.20
66670;DHT22;53568;52.164;4.472;2023-04-21T00:49:05;10.59;77.23
66670;DHT22;53568;52.164;4.472;2023-04-21T00:51:33;10.63;77.11
66670;DHT22;53568;52.164;4.472;2023-04-21T00:54:00;10.65;76.94
66670;DHT22;53568;52.164;4.472;2023-04-21T00:56:30;10.55;77.36
66670;DHT22;53568;52.164;4.472;2023-04-21T00:58:58;10.56;76.82
66670;DHT22;53568;52.164;4.472;2023-04-21T01:01:24;10.52;77.24
66670;DHT22;53568;52.164;4.472;2023-04-21T01:03:50;10.50;77.80
66670;DHT22;53568;52.164;4.472;2023-04-21T01:06:17;10.58;77.67
66670;DHT22;53568;52.164;4.472;2023-04-21T01:08:44;10.60;77.21
66670;DHT22;53568;52.164;4.472;2023-04-21T01:11:11;10.50;77.56
66670;DHT22;53568;52.164;4.472;2023-04-21T01:13:37;10.49;77.81
66670;DHT22;53568;52.164;4.472;2023-04-21T01:16:04;10.41;77.70
66670;DHT22;53568;52.164;4.472;2023-04-21T01:18:29;10.41;78.00
66670;DHT22;53568;52.164;4.472;2023-04-21T01:20:55;10.46;78.03
66670;DHT22;53568;52.164;4.472;2023-04-21T01:23:23;10.48;77.84
66670;DHT22;53568;52.164;4.472;2023-04-21T01:25:50;10.26;78.45
66670;DHT22;53568;52.164;4.472;2023-04-21T01:28:21;10.41;78.13
66670;DHT22;53568;52.164;4.472;2023-04-21T01:30:47;10.39;78.14
66670;DHT22;53568;52.164;4.472;2023-04-21T01:33:12;10.45;78.33
66670;DHT22;53568;52.164;4.472;2023-04-21T01:35:39;10.48;78.31
66670;DHT22;53568;52.164;4.472;2023-04-21T01:38:04;10.38;78.72
66670;DHT22;53568;52.164;4.472;2023-04-21T01:40:30;10.36;78.82
66670;DHT22;53568;52.164;4.472;2023-04-21T01:42:56;10.34;78.83
66670;DHT22;53568;52.164;4.472;2023-04-21T01:45:22;10.38;78.70
66670;DHT22;53568;52.164;4.472;2023-04-21T01:47:47;10.34;78.84
66670;DHT22;53568;52.164;4.472;2023-04-21T01:50:13;10.29;79.00
66670;DHT22;53568;52.164;4.472;2023-04-21T01:52:40;10.29;79.22
66670;DHT22;53568;52.164;4.472;2023-04-21T01:55:06;10.28;79.12
66670;DHT22;53568;52.164;4.472;2023-04-21T01:57:31;10.26;79.62
66670;DHT22;53568;52.164;4.472;2023-04-21T01:59:57;10.32;79.40
66670;DHT22;53568;52.164;4.472;2023-04-21T02:02:23;10.21;79.41
66670;DHT22;53568;52.164;4.472;2023-04-21T02:04:48;10.21;79.98
66670;DHT22;53568;52.164;4.472;2023-04-21T02:07:14;10.16;80.12
66670;DHT22;53568;52.164;4.472;2023-04-21T02:09:39;10.25;79.85
66670;DHT22;53568;52.164;4.472;2023-04-21T02:12:05;10.19;79.67
66670;DHT22;53568;52.164;4.472;2023-04-21T02:14:31;10.14;79.65
66670;DHT22;53568;52.164;4.472;2023-04-21T02:16:56;9.91;80.92
66670;DHT22;53568;52.164;4.472;2023-04-21T02:19:22;10.02;80.50
66670;DHT22;53568;52.164;4.472;2023-04-21T02:21:48;10.05;80.46
66670;DHT22;53568;52.164;4.472;2023-04-21T02:24:14;9.90;81.11
66670;DHT22;53568;52.164;4.472;2023-04-21T02:26:40;9.87;81.11
66670;DHT22;53568;52.164;4.472;2023-04-21T02:29:05;9.85;81.52
66670;DHT22;53568;52.164;4.472;2023-04-21T02:31:31;9.88;81.42
66670;DHT22;53568;52.164;4.472;2023-04-21T02:33:56;9.91;81.62
66670;DHT22;53568;52.164;4.472;2023-04-21T02:36:23;9.97;81.31
66670;DHT22;53568;52.164;4.472;2023-04-21T02:38:48;9.99;81.23
66670;DHT22;53568;52.164;4.472;2023-04-21T02:41:14;10.02;81.07
66670;DHT22;53568;52.164;4.472;2023-04-21T02:43:40;10.05;81.13
66670;DHT22;53568;52.164;4.472;2023-04-21T02:46:06;10.02;81.15
66670;DHT22;53568;52.164;4.472;2023-04-21T02:48:33;10.02;81.22
66670;DHT22;53568;52.164;4.472;2023-04-21T02:50:59;9.98;81.46
66670;DHT22;53568;52.164;4.472;2023-04-21T02:53:24;10.06;81.41
66670;DHT22;53568;52.164;4.472;2023-04-21T02:55:50;10.09;81.33
66670;DHT22;53568;52.164;4.472;2023-04-21T02:58:15;10.09;81.30
66670;DHT22;53568;52.164;4.472;2023-04-21T03:00:41;10.06;81.37
66670;DHT22;53568;52.164;4.472;2023-04-21T03:03:06;10.05;81.64
66670;DHT22;53568;52.164;4.472;2023-04-21T03:05:32;10.02;81.93
66670;DHT22;53568;52.164;4.472;2023-04-21T03:07:58;10.12;81.79
66670;DHT22;53568;52.164;4.472;2023-04-21T03:10:23;10.14;81.84
66670;DHT22;53568;52.164;4.472;2023-04-21T03:12:49;10.24;81.75
66670;DHT22;53568;52.164;4.472;2023-04-21T03:15:14;10.28;80.97
66670;DHT22;53568;52.164;4.472;2023-04-21T03:17:41;10.25;80.89
66670;DHT22;53568;52.164;4.472;2023-04-21T03:20:08;10.22;81.01
66670;DHT22;53568;52.164;4.472;2023-04-21T03:22:38;10.24;80.99
66670;DHT22;53568;52.164;4.472;2023-04-21T03:25:04;10.26;80.72
66670;DHT22;53568;52.164;4.472;2023-04-21T03:27:31;10.18;80.73
66670;DHT22;53568;52.164;4.472;2023-04-21T03:29:58;10.09;81.03
66670;DHT22;53568;52.164;4.472;2023-04-21T03:32:24;10.08;81.37
66670;DHT22;53568;52.164;4.472;2023-04-21T03:34:49;10.12;81.55
66670;DHT22;53568;52.164;4.472;2023-04-21T03:37:15;10.12;81.50
66670;DHT22;53568;52.164;4.472;2023-04-21T03:39:40;10.18;81.28
66670;DHT22;53568;52.164;4.472;2023-04-21T03:42:06;10.18;81.22
66670;DHT22;53568;52.164;4.472;2023-04-21T03:44:31;10.08;81.27
66670;DHT22;53568;52.164;4.472;2023-04-21T03:46:57;10.11;81.52
66670;DHT22;53568;52.164;4.472;2023-04-21T03:49:23;10.15;81.52
66670;DHT22;53568;52.164;4.472;2023-04-21T03:51:48;10.12;81.15
66670;DHT22;53568;52.164;4.472;2023-04-21T03:54:14;10.01;81.38
66670;DHT22;53568;52.164;4.472;2023-04-21T03:56:40;9.95;81.62
66670;DHT22;53568;52.164;4.472;2023-04-21T03:59:05;9.98;81.94
66670;DHT22;53568;52.164;4.472;2023-04-21T04:01:32;9.91;81.89
66670;DHT22;53568;52.164;4.472;2023-04-21T04:03:57;9.95;81.80
66670;DHT22;53568;52.164;4.472;2023-04-21T04:06:23;9.94;81.91
66670;DHT22;53568;52.164;4.472;2023-04-21T04:08:48;9.88;81.76
66670;DHT22;53568;52.164;4.472;2023-04-21T04:11:14;9.85;82.21
66670;DHT22;53568;52.164;4.472;2023-04-21T04:13:39;9.87;82.31
66670;DHT22;53568;52.164;4.472;2023-04-21T04:16:05;9.87;82.60
66670;DHT22;53568;52.164;4.472;2023-04-21T04:18:31;9.97;82.43
66670;DHT22;53568;52.164;4.472;2023-04-21T04:20:56;9.92;82.42
66670;DHT22;53568;52.164;4.472;2023-04-21T04:23:22;9.99;82.36
66670;DHT22;53568;52.164;4.472;2023-04-21T04:25:47;10.04;82.29
66670;DHT22;53568;52.164;4.472;2023-04-21T04:28:14;10.05;82.45
66670;DHT22;53568;52.164;4.472;2023-04-21T04:30:40;10.09;82.38
66670;DHT22;53568;52.164;4.472;2023-04-21T04:33:06;10.14;82.11
66670;DHT22;53568;52.164;4.472;2023-04-21T04:35:31;10.14;81.95
66670;DHT22;53568;52.164;4.472;2023-04-21T04:37:57;10.12;82.14
66670;DHT22;53568;52.164;4.472;2023-04-21T04:40:24;10.16;81.71
66670;DHT22;53568;52.164;4.472;2023-04-21T04:42:49;10.11;82.01
66670;DHT22;53568;52.164;4.472;2023-04-21T04:45:15;10.12;81.96
66670;DHT22;53568;52.164;4.472;2023-04-21T04:47:41;10.14;81.89
66670;DHT22;53568;52.164;4.472;2023-04-21T04:50:07;10.11;82.08
66670;DHT22;53568;52.164;4.472;2023-04-21T04:52:33;10.11;82.11
66670;DHT22;53568;52.164;4.472;2023-04-21T04:54:59;10.11;82.08
66670;DHT22;53568;52.164;4.472;2023-04-21T04:57:24;10.09;82.30
66670;DHT22;53568;52.164;4.472;2023-04-21T04:59:54;10.11;82.24
66670;DHT22;53568;52.164;4.472;2023-04-21T05:02:20;10.11;82.37
66670;DHT22;53568;52.164;4.472;2023-04-21T05:04:50;10.14;82.40
66670;DHT22;53568;52.164;4.472;2023-04-21T05:07:16;10.14;82.14
66670;DHT22;53568;52.164;4.472;2023-04-21T05:09:41;10.06;82.40
66670;DHT22;53568;52.164;4.472;2023-04-21T05:12:07;10.06;82.47
66670;DHT22;53568;52.164;4.472;2023-04-21T05:14:32;10.08;82.65
66670;DHT22;53568;52.164;4.472;2023-04-21T05:16:58;10.08;82.74
66670;DHT22;53568;52.164;4.472;2023-04-21T05:19:24;10.06;82.91
66670;DHT22;53568;52.164;4.472;2023-04-21T05:21:50;10.12;82.46
66670;DHT22;53568;52.164;4.472;2023-04-21T05:24:16;10.08;82.58
66670;DHT22;53568;52.164;4.472;2023-04-21T05:26:47;10.06;82.86
66670;DHT22;53568;52.164;4.472;2023-04-21T05:29:13;10.06;83.00
66670;DHT22;53568;52.164;4.472;2023-04-21T05:31:38;10.12;82.96
66670;DHT22;53568;52.164;4.472;2023-04-21T05:34:04;10.19;82.81
66670;DHT22;53568;52.164;4.472;2023-04-21T05:36:29;10.19;82.72
66670;DHT22;53568;52.164;4.472;2023-04-21T05:38:55;10.29;82.71
66670;DHT22;53568;52.164;4.472;2023-04-21T05:41:21;10.31;82.33
66670;DHT22;53568;52.164;4.472;2023-04-21T05:43:46;10.29;82.47
66670;DHT22;53568;52.164;4.472;2023-04-21T05:46:12;10.28;82.44
66670;DHT22;53568;52.164;4.472;2023-04-21T05:48:37;10.34;82.42
66670;DHT22;53568;52.164;4.472;2023-04-21T05:51:22;10.28;82.47
66670;DHT22;53568;52.164;4.472;2023-04-21T05:53:48;10.19;82.56
66670;DHT22;53568;52.164;4.472;2023-04-21T05:56:13;10.19;82.88
66670;DHT22;53568;52.164;4.472;2023-04-21T05:58:39;10.12;83.08
66670;DHT22;53568;52.164;4.472;2023-04-21T06:01:05;10.18;83.16
66670;DHT22;53568;52.164;4.472;2023-04-21T06:03:31;10.22;83.27
66670;DHT22;53568;52.164;4.472;2023-04-21T06:05:59;10.28;83.08
66670;DHT22;53568;52.164;4.472;2023-04-21T06:08:25;10.28;83.05
66670;DHT22;53568;52.164;4.472;2023-04-21T06:10:51;10.28;83.05
66670;DHT22;53568;52.164;4.472;2023-04-21T06:13:16;10.36;83.14
66670;DHT22;53568;52.164;4.472;2023-04-21T06:15:42;10.42;82.96
66670;DHT22;53568;52.164;4.472;2023-04-21T06:18:07;10.44;83.02
66670;DHT22;53568;52.164;4.472;2023-04-21T06:20:33;10.45;82.99
66670;DHT22;53568;52.164;4.472;2023-04-21T06:23:00;10.53;82.76
66670;DHT22;53568;52.164;4.472;2023-04-21T06:25:25;10.59;82.52
66670;DHT22;53568;52.164;4.472;2023-04-21T06:27:51;10.59;82.37
66670;DHT22;53568;52.164;4.472;2023-04-21T06:30:16;10.60;82.48
66670;DHT22;53568;52.164;4.472;2023-04-21T06:32:42;10.52;82.41
66670;DHT22;53568;52.164;4.472;2023-04-21T06:35:10;10.56;82.31
66670;DHT22;53568;52.164;4.472;2023-04-21T06:37:36;10.56;82.28
66670;DHT22;53568;52.164;4.472;2023-04-21T06:40:02;10.58;82.35
66670;DHT22;53568;52.164;4.472;2023-04-21T06:42:28;10.59;82.21
66670;DHT22;53568;52.164;4.472;2023-04-21T06:44:53;10.62;82.34
66670;DHT22;53568;52.164;4.472;2023-04-21T06:47:20;10.66;82.22
66670;DHT22;53568;52.164;4.472;2023-04-21T06:49:46;10.70;82.20
66670;DHT22;53568;52.164;4.472;2023-04-21T06:52:12;10.83;82.10
66670;DHT22;53568;52.164;4.472;2023-04-21T06:54:37;10.83;81.79
66670;DHT22;53568;52.164;4.472;2023-04-21T06:57:03;10.83;81.77
66670;DHT22;53568;52.164;4.472;2023-04-21T06:59:28;10.82;81.92
66670;DHT22;53568;52.164;4.472;2023-04-21T07:01:53;10.88;81.80
66670;DHT22;53568;52.164;4.472;2023-04-21T07:04:19;10.89;81.69
66670;DHT22;53568;52.164;4.472;2023-04-21T07:06:46;10.90;81.66
66670;DHT22;53568;52.164;4.472;2023-04-21T07:09:11;10.99;81.60
66670;DHT22;53568;52.164;4.472;2023-04-21T07:11:37;11.03;81.63
66670;DHT22;53568;52.164;4.472;2023-04-21T07:14:03;11.10;81.56
66670;DHT22;53568;52.164;4.472;2023-04-21T07:16:29;11.28;81.49
66670;DHT22;53568;52.164;4.472;2023-04-21T07:18:55;11.48;80.74
66670;DHT22;53568;52.164;4.472;2023-04-21T07:21:20;11.44;80.33
66670;DHT22;53568;52.164;4.472;2023-04-21T07:23:46;11.46;79.97
66670;DHT22;53568;52.164;4.472;2023-04-21T07:26:12;11.51;79.93
66670;DHT22;53568;52.164;4.472;2023-04-21T07:28:38;11.54;79.62
66670;DHT22;53568;52.164;4.472;2023-04-21T07:31:05;11.58;79.43
66670;DHT22;53568;52.164;4.472;2023-04-21T07:33:31;11.63;79.45
66670;DHT22;53568;52.164;4.472;2023-04-21T07:35:57;11.70;79.12
66670;DHT22;53568;52.164;4.472;2023-04-21T07:38:23;11.73;79.10
66670;DHT22;53568;52.164;4.472;2023-04-21T07:40:49;11.80;78.38
66670;DHT22;53568;52.164;4.472;2023-04-21T07:43:14;11.73;78.20
66670;DHT22;53568;52.164;4.472;2023-04-21T07:45:40;11.71;78.40
66670;DHT22;53568;52.164;4.472;2023-04-21T07:48:09;11.71;78.02
66670;DHT22;53568;52.164;4.472;2023-04-21T07:50:37;11.64;78.10
66670;DHT22;53568;52.164;4.472;2023-04-21T07:53:02;11.66;78.24
66670;DHT22;53568;52.164;4.472;2023-04-21T07:55:28;11.64;78.55
66670;DHT22;53568;52.164;4.472;2023-04-21T07:57:54;11.64;78.83
66670;DHT22;53568;52.164;4.472;2023-04-21T08:00:20;11.74;78.58
66670;DHT22;53568;52.164;4.472;2023-04-21T08:02:45;11.84;78.32
66670;DHT22;53568;52.164;4.472;2023-04-21T08:05:11;11.80;77.83
66670;DHT22;53568;52.164;4.472;2023-04-21T08:07:37;11.78;77.36
66670;DHT22;53568;52.164;4.472;2023-04-21T08:10:04;11.74;76.90
66670;DHT22;53568;52.164;4.472;2023-04-21T08:12:30;11.80;76.74
66670;DHT22;53568;52.164;4.472;2023-04-21T08:14:56;11.90;75.56
66670;DHT22;53568;52.164;4.472;2023-04-21T08:17:21;11.95;75.46
66670;DHT22;53568;52.164;4.472;2023-04-21T08:19:47;12.02;75.44
66670;DHT22;53568;52.164;4.472;2023-04-21T08:22:12;12.08;75.51
66670;DHT22;53568;52.164;4.472;2023-04-21T08:24:38;12.12;75.38
66670;DHT22;53568;52.164;4.472;2023-04-21T08:27:04;12.21;75.39
66670;DHT22;53568;52.164;4.472;2023-04-21T08:29:29;12.35;74.87
66670;DHT22;53568;52.164;4.472;2023-04-21T08:31:54;12.46;75.49
66670;DHT22;53568;52.164;4.472;2023-04-21T08:34:21;12.56;75.02
66670;DHT22;53568;52.164;4.472;2023-04-21T08:36:46;12.56;74.82
66670;DHT22;53568;52.164;4.472;2023-04-21T08:39:14;12.67;74.98
66670;DHT22;53568;52.164;4.472;2023-04-21T08:41:40;12.87;74.39
66670;DHT22;53568;52.164;4.472;2023-04-21T08:44:07;12.93;73.65
66670;DHT22;53568;52.164;4.472;2023-04-21T08:46:34;12.87;73.31
66670;DHT22;53568;52.164;4.472;2023-04-21T08:49:01;13.13;72.89
66670;DHT22;53568;52.164;4.472;2023-04-21T08:51:27;13.20;72.54
66670;DHT22;53568;52.164;4.472;2023-04-21T08:53:54;13.11;70.82
66670;DHT22;53568;52.164;4.472;2023-04-21T08:56:20;13.16;70.83
66670;DHT22;53568;52.164;4.472;2023-04-21T08:58:45;13.16;70.29
66670;DHT22;53568;52.164;4.472;2023-04-21T09:01:10;13.20;70.22
66670;DHT22;53568;52.164;4.472;2023-04-21T09:03:36;13.28;69.81
66670;DHT22;53568;52.164;4.472;2023-04-21T09:06:05;13.39;69.56
66670;DHT22;53568;52.164;4.472;2023-04-21T09:08:31;13.41;70.45
66670;DHT22;53568;52.164;4.472;2023-04-21T09:10:58;13.55;70.09
66670;DHT22;53568;52.164;4.472;2023-04-21T09:13:32;13.41;69.62
66670;DHT22;53568;52.164;4.472;2023-04-21T09:15:58;13.54;69.24
66670;DHT22;53568;52.164;4.472;2023-04-21T09:18:26;13.57;68.31
66670;DHT22;53568;52.164;4.472;2023-04-21T09:23:41;13.51;68.26
66670;DHT22;53568;52.164;4.472;2023-04-21T09:26:07;13.63;68.45
66670;DHT22;53568;52.164;4.472;2023-04-21T09:28:33;13.70;67.51
66670;DHT22;53568;52.164;4.472;2023-04-21T09:30:58;13.74;66.66
66670;DHT22;53568;52.164;4.472;2023-04-21T09:33:24;13.78;67.12
66670;DHT22;53568;52.164;4.472;2023-04-21T09:35:51;14.05;66.63
66670;DHT22;53568;52.164;4.472;2023-04-21T09:38:17;14.09;66.07
66670;DHT22;53568;52.164;4.472;2023-04-21T09:40:56;14.08;66.10
66670;DHT22;53568;52.164;4.472;2023-04-21T09:43:22;14.17;65.36
66670;DHT22;53568;52.164;4.472;2023-04-21T09:45:48;14.32;64.87
66670;DHT22;53568;52.164;4.472;2023-04-21T09:48:16;14.26;65.33
66670;DHT22;53568;52.164;4.472;2023-04-21T09:50:45;14.25;64.99
66670;DHT22;53568;52.164;4.472;2023-04-21T09:53:15;14.41;65.25
66670;DHT22;53568;52.164;4.472;2023-04-21T09:55:42;14.51;64.88
66670;DHT22;53568;52.164;4.472;2023-04-21T09:58:14;14.65;64.40
66670;DHT22;53568;52.164;4.472;2023-04-21T10:00:42;14.75;63.97
66670;DHT22;53568;52.164;4.472;2023-04-21T10:03:08;14.80;63.46
66670;DHT22;53568;52.164;4.472;2023-04-21T10:05:38;14.86;63.76
66670;DHT22;53568;52.164;4.472;2023-04-21T10:08:04;14.90;63.82
66670;DHT22;53568;52.164;4.472;2023-04-21T10:10:32;14.75;63.82
66670;DHT22;53568;52.164;4.472;2023-04-21T10:13:12;14.65;63.29
66670;DHT22;53568;52.164;4.472;2023-04-21T10:15:40;14.76;62.22
66670;DHT22;53568;52.164;4.472;2023-04-21T10:18:18;14.79;62.82
66670;DHT22;53568;52.164;4.472;2023-04-21T10:21:04;14.77;62.45
66670;DHT22;53568;52.164;4.472;2023-04-21T10:23:53;14.71;62.99
66670;DHT22;53568;52.164;4.472;2023-04-21T10:26:31;14.73;63.48
66670;DHT22;53568;52.164;4.472;2023-04-21T10:29:05;14.66;64.40
66670;DHT22;53568;52.164;4.472;2023-04-21T10:31:35;14.59;64.56
66670;DHT22;53568;52.164;4.472;2023-04-21T10:36:34;14.71;66.13
66670;DHT22;53568;52.164;4.472;2023-04-21T10:39:01;14.75;66.30
66670;DHT22;53568;52.164;4.472;2023-04-21T10:41:32;14.56;67.08
66670;DHT22;53568;52.164;4.472;2023-04-21T10:44:14;14.53;66.38
66670;DHT22;53568;52.164;4.472;2023-04-21T10:46:46;14.71;66.87
66670;DHT22;53568;52.164;4.472;2023-04-21T10:57:13;14.90;64.52
66670;DHT22;53568;52.164;4.472;2023-04-21T10:59:39;14.82;64.12
66670;DHT22;53568;52.164;4.472;2023-04-21T11:02:06;14.82;64.04
66670;DHT22;53568;52.164;4.472;2023-04-21T11:04:32;14.87;63.90
66670;DHT22;53568;52.164;4.472;2023-04-21T11:07:11;14.66;65.69
66670;DHT22;53568;52.164;4.472;2023-04-21T11:09:38;14.86;65.11
66670;DHT22;53568;52.164;4.472;2023-04-21T11:12:07;15.10;63.61
66670;DHT22;53568;52.164;4.472;2023-04-21T11:14:34;15.14;61.71
66670;DHT22;53568;52.164;4.472;2023-04-21T11:17:01;15.27;61.94
66670;DHT22;53568;52.164;4.472;2023-04-21T11:19:27;15.44;61.66
66670;DHT22;53568;52.164;4.472;2023-04-21T11:21:53;15.58;61.09
66670;DHT22;53568;52.164;4.472;2023-04-21T11:24:22;15.78;61.10
66670;DHT22;53568;52.164;4.472;2023-04-21T11:26:48;15.94;61.07
66670;DHT22;53568;52.164;4.472;2023-04-21T11:29:13;16.00;61.19
66670;DHT22;53568;52.164;4.472;2023-04-21T11:31:41;16.09;61.05
66670;DHT22;53568;52.164;4.472;2023-04-21T11:34:08;16.02;62.42
66670;DHT22;53568;52.164;4.472;2023-04-21T11:36:39;15.71;63.04
66670;DHT22;53568;52.164;4.472;2023-04-21T11:39:09;15.75;63.86
66670;DHT22;53568;52.164;4.472;2023-04-21T11:41:39;15.68;63.85
66670;DHT22;53568;52.164;4.472;2023-04-21T11:44:09;15.64;64.30
66670;DHT22;53568;52.164;4.472;2023-04-21T11:46:35;15.81;63.23
66670;DHT22;53568;52.164;4.472;2023-04-21T11:49:11;16.00;62.30
66670;DHT22;53568;52.164;4.472;2023-04-21T11:51:41;16.05;62.08
66670;DHT22;53568;52.164;4.472;2023-04-21T11:54:12;16.12;60.78
66670;DHT22;53568;52.164;4.472;2023-04-21T11:56:45;16.09;60.55
66670;DHT22;53568;52.164;4.472;2023-04-21T11:59:14;15.84;58.61
66670;DHT22;53568;52.164;4.472;2023-04-21T12:01:44;15.84;59.59
66670;DHT22;53568;52.164;4.472;2023-04-21T12:04:21;15.70;60.04
66670;DHT22;53568;52.164;4.472;2023-04-21T12:06:59;15.72;61.43
66670;DHT22;53568;52.164;4.472;2023-04-21T12:09:27;15.82;61.56
66670;DHT22;53568;52.164;4.472;2023-04-21T12:11:54;15.92;61.71
66670;DHT22;53568;52.164;4.472;2023-04-21T12:14:23;16.01;61.46
66670;DHT22;53568;52.164;4.472;2023-04-21T12:16:55;16.16;60.63
66670;DHT22;53568;52.164;4.472;2023-04-21T12:19:35;16.22;60.74
66670;DHT22;53568;52.164;4.472;2023-04-21T12:22:01;16.12;62.21
66670;DHT22;53568;52.164;4.472;2023-04-21T12:24:26;15.67;65.28
66670;DHT22;53568;52.164;4.472;2023-04-21T12:26:53;15.54;65.81
66670;DHT22;53568;52.164;4.472;2023-04-21T12:29:18;15.47;65.70
66670;DHT22;53568;52.164;4.472;2023-04-21T12:31:44;15.19;66.22
66670;DHT22;53568;52.164;4.472;2023-04-21T12:34:09;15.19;66.25
66670;DHT22;53568;52.164;4.472;2023-04-21T12:36:35;15.37;66.11
66670;DHT22;53568;52.164;4.472;2023-04-21T12:39:01;15.57;66.07
66670;DHT22;53568;52.164;4.472;2023-04-21T12:41:26;15.71;65.15
66670;DHT22;53568;52.164;4.472;2023-04-21T12:43:52;15.82;64.99
66670;DHT22;53568;52.164;4.472;2023-04-21T12:46:17;15.87;63.75
66670;DHT22;53568;52.164;4.472;2023-04-21T12:48:43;15.74;63.70
66670;DHT22;53568;52.164;4.472;2023-04-21T12:51:09;15.51;64.96
66670;DHT22;53568;52.164;4.472;2023-04-21T12:53:34;15.40;64.99
66670;DHT22;53568;52.164;4.472;2023-04-21T12:56:01;15.54;65.42
66670;DHT22;53568;52.164;4.472;2023-04-21T12:58:27;15.67;64.23
66670;DHT22;53568;52.164;4.472;2023-04-21T13:00:52;15.74;64.69
66670;DHT22;53568;52.164;4.472;2023-04-21T13:03:18;15.92;63.84
66670;DHT22;53568;52.164;4.472;2023-04-21T13:05:43;16.01;63.15
66670;DHT22;53568;52.164;4.472;2023-04-21T13:08:09;16.02;63.74
66670;DHT22;53568;52.164;4.472;2023-04-21T13:10:34;16.08;63.62
66670;DHT22;53568;52.164;4.472;2023-04-21T13:13:00;16.05;62.28
66670;DHT22;53568;52.164;4.472;2023-04-21T13:15:25;15.94;63.02
66670;DHT22;53568;52.164;4.472;2023-04-21T13:17:51;16.06;62.85
66670;DHT22;53568;52.164;4.472;2023-04-21T13:20:16;16.12;62.69
66670;DHT22;53568;52.164;4.472;2023-04-21T13:22:43;15.98;62.90
66670;DHT22;53568;52.164;4.472;2023-04-21T13:25:09;15.81;63.32
66670;DHT22;53568;52.164;4.472;2023-04-21T13:27:35;15.72;63.65
66670;DHT22;53568;52.164;4.472;2023-04-21T13:30:09;15.64;64.24
66670;DHT22;53568;52.164;4.472;2023-04-21T13:32:35;15.92;62.86
66670;DHT22;53568;52.164;4.472;2023-04-21T13:35:01;15.82;63.14
66670;DHT22;53568;52.164;4.472;2023-04-21T13:37:29;15.82;63.62
66670;DHT22;53568;52.164;4.472;2023-04-21T13:39:54;15.77;64.02
66670;DHT22;53568;52.164;4.472;2023-04-21T13:42:20;15.97;63.25
66670;DHT22;53568;52.164;4.472;2023-04-21T13:44:46;16.06;63.14
66670;DHT22;53568;52.164;4.472;2023-04-21T13:47:11;16.04;63.76
66670;DHT22;53568;52.164;4.472;2023-04-21T13:49:37;16.28;62.84
66670;DHT22;53568;52.164;4.472;2023-04-21T13:52:03;16.21;63.15
66670;DHT22;53568;52.164;4.472;2023-04-21T13:54:29;16.41;62.30
66670;DHT22;53568;52.164;4.472;2023-04-21T13:56:55;16.51;61.51
66670;DHT22;53568;52.164;4.472;2023-04-21T13:59:21;16.59;61.05
66670;DHT22;53568;52.164;4.472;2023-04-21T14:01:47;16.66;60.44
66670;DHT22;53568;52.164;4.472;2023-04-21T14:04:12;16.68;59.82
66670;DHT22;53568;52.164;4.472;2023-04-21T14:06:38;16.73;59.80
66670;DHT22;53568;52.164;4.472;2023-04-21T14:09:03;16.69;60.54
66670;DHT22;53568;52.164;4.472;2023-04-21T14:11:30;16.38;62.03
66670;DHT22;53568;52.164;4.472;2023-04-21T14:13:56;16.32;62.67
66670;DHT22;53568;52.164;4.472;2023-04-21T14:16:21;16.29;62.73
66670;DHT22;53568;52.164;4.472;2023-04-21T14:18:47;16.55;62.29
66670;DHT22;53568;52.164;4.472;2023-04-21T14:21:13;16.68;62.00
66670;DHT22;53568;52.164;4.472;2023-04-21T14:23:38;16.92;61.34
66670;DHT22;53568;52.164;4.472;2023-04-21T14:26:07;17.03;60.60
66670;DHT22;53568;52.164;4.472;2023-04-21T14:28:33;16.92;59.15
66670;DHT22;53568;52.164;4.472;2023-04-21T14:30:58;16.69;59.79
66670;DHT22;53568;52.164;4.472;2023-04-21T14:33:24;16.82;59.97
66670;DHT22;53568;52.164;4.472;2023-04-21T14:35:50;17.03;59.51
66670;DHT22;53568;52.164;4.472;2023-04-21T14:38:15;17.23;59.19
66670;DHT22;53568;52.164;4.472;2023-04-21T14:40:41;17.38;58.59
66670;DHT22;53568;52.164;4.472;2023-04-21T14:43:07;17.60;57.03
66670;DHT22;53568;52.164;4.472;2023-04-21T14:45:38;17.82;57.49
66670;DHT22;53568;52.164;4.472;2023-04-21T14:48:05;17.75;58.19
66670;DHT22;53568;52.164;4.472;2023-04-21T14:50:31;17.77;57.48
66670;DHT22;53568;52.164;4.472;2023-04-21T14:52:57;17.70;57.63
66670;DHT22;53568;52.164;4.472;2023-04-21T14:55:22;17.66;57.12
66670;DHT22;53568;52.164;4.472;2023-04-21T14:57:48;17.61;57.40
66670;DHT22;53568;52.164;4.472;2023-04-21T15:00:17;17.47;57.60
66670;DHT22;53568;52.164;4.472;2023-04-21T15:02:43;17.57;57.42
66670;DHT22;53568;52.164;4.472;2023-04-21T15:05:09;17.68;56.98
66670;DHT22;53568;52.164;4.472;2023-04-21T15:07:34;17.90;56.49
66670;DHT22;53568;52.164;4.472;2023-04-21T15:10:00;18.02;56.34
66670;DHT22;53568;52.164;4.472;2023-04-21T15:12:25;18.04;56.72
66670;DHT22;53568;52.164;4.472;2023-04-21T15:14:51;18.19;55.96
66670;DHT22;53568;52.164;4.472;2023-04-21T15:17:17;18.01;54.32
66670;DHT22;53568;52.164;4.472;2023-04-21T15:19:42;18.12;54.44
66670;DHT22;53568;52.164;4.472;2023-04-21T15:22:08;18.24;54.15
66670;DHT22;53568;52.164;4.472;2023-04-21T15:24:33;18.31;54.40
66670;DHT22;53568;52.164;4.472;2023-04-21T15:26:59;18.31;53.51
66670;DHT22;53568;52.164;4.472;2023-04-21T15:29:25;18.18;54.21
66670;DHT22;53568;52.164;4.472;2023-04-21T15:31:51;18.26;54.72
66670;DHT22;53568;52.164;4.472;2023-04-21T15:34:16;18.19;57.23
66670;DHT22;53568;52.164;4.472;2023-04-21T15:36:42;17.92;58.71
66670;DHT22;53568;52.164;4.472;2023-04-21T15:39:07;17.74;59.64
66670;DHT22;53568;52.164;4.472;2023-04-21T15:41:33;17.24;60.42